Time;durP1;ratioP1;P1;durP2;ratioP2;P2;SDS_P1;SDS_P2;PMS_P1;PMS_P2;Temp;Humidity;BMP_temperature;BMP_pressure;BME280_temperature;BME280_humidity;BME280_pressure;Samples;Min_cycle;Max_cycle;Signal;HPM_P1;HPM_P2
2022/01/28 00:04:50;;;;;;;8.13;1.40;;;3.70;99.90;;;;;;5097488;28;20020;-71
2022/01/28 00:07:17;;;;;;;12.93;1.50;;;3.70;99.90;;;;;;5096937;28;20085;-71
2022/01/28 00:09:44;;;;;;;13.88;2.22;;;3.60;99.90;;;;;;5098038;28;20020;-70
2022/01/28 00:12:13;;;;;;;15.45;1.88;;;3.50;99.90;;;;;;5100566;28;20020;-71
2022/01/28 00:39:00;;;;;;;9.02;2.30;;;3.70;99.90;;;;;;5099162;28;20055;-71
2022/01/28 00:41:27;;;;;;;14.50;2.55;;;3.70;99.90;;;;;;5098994;28;20035;-71
2022/01/28 00:43:55;;;;;;;3.17;1.52;;;3.70;99.90;;;;;;5099040;28;20363;-71
2022/01/28 00:46:22;;;;;;;14.32;2.65;;;3.70;99.90;;;;;;5100199;28;20031;-71
2022/01/28 00:48:49;;;;;;;14.13;2.20;;;3.70;99.90;;;;;;5099779;28;20035;-71
2022/01/28 00:51:16;;;;;;;12.30;1.95;;;3.70;99.90;;;;;;5099651;28;20420;-71
2022/01/28 00:53:43;;;;;;;11.30;2.08;;;3.70;99.90;;;;;;5082393;28;20035;-71
2022/01/28 00:56:11;;;;;;;11.68;1.80;;;3.80;99.90;;;;;;5100090;28;20022;-71
2022/01/28 00:58:38;;;;;;;8.68;1.67;;;3.80;99.90;;;;;;5099630;28;20365;-71
2022/01/28 01:01:06;;;;;;;8.60;1.88;;;3.80;99.90;;;;;;5099548;28;20045;-71
2022/01/28 01:03:33;;;;;;;15.30;2.75;;;3.90;99.90;;;;;;5099549;28;20114;-71
2022/01/28 01:06:00;;;;;;;11.57;1.50;;;3.90;99.90;;;;;;5099185;28;20024;-71
2022/01/28 01:08:28;;;;;;;9.35;1.90;;;4.00;99.90;;;;;;5098276;28;20309;-71
2022/01/28 01:10:55;;;;;;;14.23;1.90;;;4.00;99.90;;;;;;5098547;28;20412;-71
2022/01/28 01:13:22;;;;;;;11.93;1.73;;;4.00;99.90;;;;;;5098287;28;20111;-71
2022/01/28 01:15:54;;;;;;;15.90;1.88;;;4.00;99.90;;;;;;5098302;28;20031;-72
2022/01/28 01:18:31;;;;;;;9.02;1.73;;;4.00;99.90;;;;;;5098328;28;20048;-71
2022/01/28 01:21:10;;;;;;;8.88;1.08;;;4.00;99.90;;;;;;5098323;28;20316;-71
2022/01/28 01:23:47;;;;;;;10.98;1.83;;;4.00;99.90;;;;;;5098706;28;20044;-72
2022/01/28 01:26:15;;;;;;;9.93;1.48;;;4.00;99.90;;;;;;5098862;28;20304;-71
2022/01/28 01:28:42;;;;;;;19.40;2.90;;;4.00;99.90;;;;;;5098558;28;20052;-71
2022/01/28 01:31:18;;;;;;;16.52;2.90;;;3.90;99.90;;;;;;5099148;28;20016;-71
2022/01/28 01:33:55;;;;;;;19.27;2.55;;;3.90;99.90;;;;;;5098793;28;20016;-71
2022/01/28 01:36:24;;;;;;;7.20;1.40;;;3.90;99.90;;;;;;5099693;28;20145;-71
2022/01/28 01:38:51;;;;;;;14.20;2.10;;;4.00;99.90;;;;;;5081088;28;20028;-71
2022/01/28 01:41:30;;;;;;;17.45;1.85;;;3.90;99.90;;;;;;5098805;28;20016;-71
2022/01/28 01:44:04;;;;;;;16.33;1.90;;;3.80;99.90;;;;;;5099101;28;20021;-71
2022/01/28 01:46:46;;;;;;;15.65;2.10;;;3.80;99.90;;;;;;5098538;28;20059;-71
2022/01/28 01:52:05;;;;;;;9.05;2.15;;;3.70;99.90;;;;;;5097975;28;20093;-71
2022/01/28 01:54:41;;;;;;;8.85;2.78;;;3.70;99.90;;;;;;5097517;28;20348;-71
2022/01/28 01:57:11;;;;;;;18.50;1.75;;;3.70;99.90;;;;;;5098162;28;20018;-71
2022/01/28 01:59:40;;;;;;;11.23;1.55;;;3.70;99.90;;;;;;5097730;28;20420;-71
2022/01/28 02:02:08;;;;;;;9.20;1.73;;;3.70;99.90;;;;;;5098034;28;20028;-71
2022/01/28 02:04:35;;;;;;;21.73;3.22;;;3.60;99.90;;;;;;5097464;28;20055;-71
2022/01/28 02:07:04;;;;;;;14.07;2.15;;;3.60;99.90;;;;;;5097374;28;20030;-71
2022/01/28 02:09:31;;;;;;;12.52;2.22;;;3.60;99.90;;;;;;5079363;28;20024;-71
2022/01/28 02:11:59;;;;;;;12.20;1.90;;;3.60;99.90;;;;;;5098647;28;20052;-71
2022/01/28 02:14:27;;;;;;;11.63;1.70;;;3.60;99.90;;;;;;5098905;28;20016;-71
2022/01/28 02:16:54;;;;;;;13.07;1.50;;;3.60;99.90;;;;;;5098438;28;20095;-71
2022/01/28 02:19:21;;;;;;;10.43;2.33;;;3.60;99.90;;;;;;5098687;28;20024;-71
2022/01/28 02:21:51;;;;;;;12.77;2.75;;;3.60;99.90;;;;;;5098130;28;20416;-71
2022/01/28 02:24:30;;;;;;;12.18;2.55;;;3.60;99.90;;;;;;5080567;28;20058;-71
2022/01/28 02:26:58;;;;;;;17.20;2.65;;;3.60;99.90;;;;;;5097853;28;20024;-71
2022/01/28 02:29:31;;;;;;;17.52;3.05;;;3.70;99.90;;;;;;5076539;28;20048;-71
2022/01/28 02:32:06;;;;;;;6.10;1.73;;;3.70;99.90;;;;;;5076661;28;20023;-71
2022/01/28 02:34:35;;;;;;;4.75;1.08;;;3.70;99.90;;;;;;5076892;28;20020;-71
2022/01/28 02:37:04;;;;;;;10.57;2.03;;;3.80;99.90;;;;;;5077258;28;20019;-71
2022/01/28 02:39:32;;;;;;;14.90;1.88;;;3.80;99.90;;;;;;5076655;28;20052;-71
2022/01/28 02:42:17;;;;;;;8.85;1.83;;;3.80;99.90;;;;;;5077143;28;20031;-71
2022/01/28 02:44:51;;;;;;;8.65;1.60;;;3.80;99.90;;;;;;5076712;28;20024;-71
2022/01/28 02:47:31;;;;;;;15.00;2.13;;;3.80;99.90;;;;;;5076855;28;20417;-71
2022/01/28 02:49:59;;;;;;;9.25;1.50;;;3.80;99.90;;;;;;5076356;28;20032;-71
2022/01/28 02:52:44;;;;;;;14.05;1.52;;;3.90;99.90;;;;;;5076415;28;20103;-71
2022/01/28 02:55:14;;;;;;;12.55;1.48;;;3.90;99.90;;;;;;5077949;28;20028;-71
2022/01/28 02:57:51;;;;;;;10.80;1.38;;;3.90;99.90;;;;;;5077912;28;20096;-71
2022/01/28 03:00:19;;;;;;;6.35;1.70;;;3.90;99.90;;;;;;5077619;28;20036;-71
2022/01/28 03:02:47;;;;;;;5.25;1.83;;;3.90;99.90;;;;;;5076253;28;20020;-71
2022/01/28 03:08:03;;;;;;;16.92;2.15;;;3.80;99.90;;;;;;5077244;28;20104;-71
2022/01/28 03:15:38;;;;;;;15.93;2.10;;;3.60;99.90;;;;;;5076284;28;20027;-71
2022/01/28 03:18:12;;;;;;;20.27;2.45;;;3.60;99.90;;;;;;5076247;28;20031;-71
2022/01/28 03:20:44;;;;;;;11.93;2.33;;;3.60;99.90;;;;;;5076548;28;20317;-71
2022/01/28 03:23:12;;;;;;;17.30;3.05;;;3.50;99.90;;;;;;5076067;28;20412;-71
2022/01/28 03:25:43;;;;;;;15.13;2.97;;;3.50;99.90;;;;;;5075467;28;20031;-71
2022/01/28 03:28:14;;;;;;;13.13;1.85;;;3.40;99.90;;;;;;5085574;28;20048;-71
2022/01/28 03:30:41;;;;;;;12.65;1.58;;;3.30;99.90;;;;;;5096449;28;20035;-71
2022/01/28 03:33:08;;;;;;;12.70;1.92;;;3.20;99.90;;;;;;5096347;28;20427;-71
2022/01/28 03:35:36;;;;;;;19.20;1.70;;;3.20;99.90;;;;;;5096716;28;20020;-71
2022/01/28 03:38:11;;;;;;;15.52;2.22;;;3.10;99.90;;;;;;5097153;28;20103;-71
2022/01/28 03:40:39;;;;;;;11.95;2.17;;;3.20;99.90;;;;;;5080510;28;20485;-71
2022/01/28 03:43:07;;;;;;;14.07;2.28;;;3.20;99.90;;;;;;5097177;28;20054;-71
2022/01/28 03:45:35;;;;;;;40.72;2.15;;;3.20;99.90;;;;;;5099590;28;20031;-71
2022/01/28 03:48:02;;;;;;;9.20;1.65;;;3.30;99.90;;;;;;5101567;28;20054;-71
2022/01/28 03:50:33;;;;;;;16.85;1.90;;;3.30;99.90;;;;;;5101033;28;20312;-71
2022/01/28 03:53:02;;;;;;;16.75;1.88;;;3.40;99.90;;;;;;5101716;28;20020;-71
2022/01/28 03:55:30;;;;;;;14.55;1.90;;;3.40;99.90;;;;;;5100472;28;20036;-71
2022/01/28 03:57:58;;;;;;;15.10;1.63;;;3.40;99.90;;;;;;5100425;28;20021;-71
2022/01/28 04:00:31;;;;;;;7.93;1.70;;;3.40;99.90;;;;;;5100481;28;20020;-71
2022/01/28 04:03:23;;;;;;;8.35;1.70;;;3.40;99.90;;;;;;5099693;28;20097;-71
2022/01/28 04:11:26;;;;;;;17.42;1.92;;;3.50;99.90;;;;;;5099825;28;20016;-71
2022/01/28 04:11:36;;;;;;;15.37;1.73;;;3.60;99.90;;;;;;5099548;28;20031;-71
2022/01/28 04:14:16;;;;;;;18.92;1.48;;;3.60;99.90;;;;;;5099882;28;20020;-71
2022/01/28 04:19:30;;;;;;;11.82;1.83;;;3.60;99.90;;;;;;5100511;28;20027;-71
2022/01/28 04:21:58;;;;;;;25.40;2.42;;;3.60;99.90;;;;;;5065698;28;20024;-71
2022/01/28 04:24:25;;;;;;;12.68;1.55;;;3.60;99.90;;;;;;5100348;28;20094;-71
2022/01/28 04:26:52;;;;;;;14.98;2.72;;;3.70;99.90;;;;;;5100240;28;20076;-72
2022/01/28 04:29:19;;;;;;;10.80;1.70;;;3.60;99.90;;;;;;5046737;28;20412;-71
2022/01/28 04:31:47;;;;;;;10.75;1.73;;;3.60;99.90;;;;;;5079897;28;20020;-71
2022/01/28 04:34:16;;;;;;;6.90;1.25;;;3.60;99.90;;;;;;5079736;28;20100;-71
2022/01/28 04:36:59;;;;;;;15.88;2.03;;;3.60;99.90;;;;;;5079710;28;20025;-71
2022/01/28 04:39:41;;;;;;;17.10;2.03;;;3.60;99.90;;;;;;5078605;28;20082;-71
2022/01/28 04:45:18;;;;;;;12.35;1.75;;;3.60;99.90;;;;;;5078919;28;20048;-71
2022/01/28 04:48:02;;;;;;;6.38;2.50;;;3.60;99.90;;;;;;5078402;28;20029;-72
2022/01/28 04:58:31;;;;;;;5.55;1.38;;;3.70;99.90;;;;;;5078758;28;20020;-71
2022/01/28 05:01:29;;;;;;;16.85;2.15;;;3.70;99.90;;;;;;5078978;28;20035;-71
2022/01/28 05:04:15;;;;;;;12.23;2.42;;;3.70;99.90;;;;;;5079339;28;20031;-71
2022/01/28 05:09:51;;;;;;;10.93;2.00;;;3.70;99.90;;;;;;5079187;28;20025;-72
2022/01/28 05:15:06;;;;;;;17.25;2.05;;;3.70;99.90;;;;;;5079220;28;20493;-71
2022/01/28 05:28:04;;;;;;;6.50;1.00;;;3.40;99.90;;;;;;5076779;28;20048;-72
2022/01/28 05:30:31;;;;;;;13.60;1.98;;;3.40;99.90;;;;;;5077821;28;20028;-72
2022/01/28 05:32:58;;;;;;;10.45;1.75;;;3.30;99.90;;;;;;5078453;28;20013;-71
2022/01/28 05:35:27;;;;;;;11.52;1.92;;;3.30;99.90;;;;;;5077913;28;20036;-71
2022/01/28 05:37:54;;;;;;;13.65;1.70;;;3.30;99.90;;;;;;5076683;28;20037;-72
2022/01/28 05:40:21;;;;;;;16.00;2.05;;;3.30;99.90;;;;;;5078067;28;20024;-72
2022/01/28 05:42:49;;;;;;;13.63;2.03;;;3.20;99.90;;;;;;5077911;28;20048;-72
2022/01/28 05:45:16;;;;;;;15.40;2.15;;;3.20;99.90;;;;;;5078055;28;20027;-71
2022/01/28 05:47:43;;;;;;;12.00;2.17;;;3.30;99.90;;;;;;5077939;28;20028;-71
2022/01/28 05:50:12;;;;;;;19.10;2.45;;;3.30;99.90;;;;;;5077261;28;20029;-71
2022/01/28 05:52:39;;;;;;;10.55;1.80;;;3.30;99.90;;;;;;5078319;28;20023;-71
2022/01/28 05:55:07;;;;;;;10.32;1.15;;;3.30;99.90;;;;;;5060534;28;20051;-71
2022/01/28 05:57:34;;;;;;;13.15;2.58;;;3.40;99.90;;;;;;5078288;28;20099;-71
2022/01/28 06:00:04;;;;;;;8.73;1.45;;;3.40;99.90;;;;;;5077241;28;20104;-71
2022/01/28 06:02:30;;;;;;;11.35;1.75;;;3.40;99.90;;;;;;5078301;28;20025;-72
2022/01/28 06:04:58;;;;;;;12.60;2.33;;;3.40;99.90;;;;;;5076956;28;20025;-72
2022/01/28 06:07:25;;;;;;;12.38;1.70;;;3.40;99.90;;;;;;5076624;28;20020;-72
2022/01/28 06:09:53;;;;;;;12.38;1.67;;;3.40;99.90;;;;;;5077438;28;20043;-72
2022/01/28 06:12:20;;;;;;;18.98;2.35;;;3.30;99.90;;;;;;5077627;28;20027;-72
2022/01/28 06:14:48;;;;;;;8.93;2.10;;;3.40;99.90;;;;;;5077160;28;20020;-71
2022/01/28 06:17:15;;;;;;;7.95;1.85;;;3.40;99.90;;;;;;5076960;28;20062;-71
2022/01/28 06:19:43;;;;;;;15.13;2.63;;;3.40;99.90;;;;;;5075903;28;20029;-71
2022/01/28 06:22:10;;;;;;;16.25;3.47;;;3.40;99.90;;;;;;5077473;28;20455;-71
2022/01/28 06:24:37;;;;;;;10.50;2.35;;;3.40;99.90;;;;;;5077128;28;20078;-72
2022/01/28 06:27:05;;;;;;;10.23;1.98;;;3.30;99.90;;;;;;5077027;28;20048;-71
2022/01/28 06:29:32;;;;;;;15.23;2.58;;;3.20;99.90;;;;;;5077572;28;20071;-72
2022/01/28 06:32:00;;;;;;;28.05;2.17;;;3.20;99.90;;;;;;5059854;28;20488;-72
2022/01/28 06:34:28;;;;;;;9.10;1.30;;;3.20;99.90;;;;;;5077839;28;20100;-72
2022/01/28 06:36:57;;;;;;;10.93;2.08;;;3.20;99.90;;;;;;5077503;28;20294;-72
2022/01/28 06:39:25;;;;;;;11.90;2.50;;;3.20;99.90;;;;;;5077742;28;20413;-71
2022/01/28 06:41:52;;;;;;;9.93;2.17;;;3.20;99.90;;;;;;5077453;28;20043;-71
2022/01/28 06:44:20;;;;;;;17.60;2.30;;;3.20;99.90;;;;;;5060521;28;20028;-71
2022/01/28 06:46:47;;;;;;;14.18;2.65;;;3.20;99.90;;;;;;5058696;28;20035;-71
2022/01/28 06:49:14;;;;;;;14.65;3.30;;;3.30;99.90;;;;;;5076380;28;20029;-71
2022/01/28 06:51:42;;;;;;;22.55;2.38;;;3.30;99.90;;;;;;5076498;28;20017;-71
2022/01/28 06:54:09;;;;;;;18.83;2.67;;;3.30;99.90;;;;;;5058816;28;20363;-71
2022/01/28 06:56:37;;;;;;;9.50;1.08;;;3.30;99.90;;;;;;5076940;28;20099;-71
2022/01/28 06:59:04;;;;;;;8.07;1.85;;;3.40;99.90;;;;;;5076428;28;20470;-71
2022/01/28 07:01:32;;;;;;;12.13;1.35;;;3.40;99.90;;;;;;5076944;28;20140;-72
2022/01/28 07:04:01;;;;;;;17.65;2.80;;;3.40;99.90;;;;;;5058542;28;20024;-72
2022/01/28 07:06:28;;;;;;;14.93;3.38;;;3.40;99.90;;;;;;5076524;28;20055;-71
2022/01/28 07:08:55;;;;;;;16.73;2.58;;;3.50;99.90;;;;;;5077437;28;20060;-71
2022/01/28 07:11:22;;;;;;;12.63;1.52;;;3.50;99.90;;;;;;5077218;28;20370;-71
2022/01/28 07:13:50;;;;;;;15.82;2.28;;;3.50;99.90;;;;;;5077313;28;20021;-72
2022/01/28 07:16:17;;;;;;;17.38;2.15;;;3.40;99.90;;;;;;5042749;28;20025;-71
2022/01/28 07:18:45;;;;;;;12.32;1.30;;;3.40;99.90;;;;;;5077147;28;20029;-72
2022/01/28 07:21:12;;;;;;;18.60;1.80;;;3.40;99.90;;;;;;5081253;28;20024;-72
2022/01/28 07:23:40;;;;;;;15.70;2.28;;;3.40;99.90;;;;;;5081376;28;20028;-72
2022/01/28 07:26:07;;;;;;;23.65;3.25;;;3.40;99.90;;;;;;5063168;28;20082;-72
2022/01/28 07:28:36;;;;;;;11.73;2.97;;;3.50;99.90;;;;;;5092540;28;20048;-73
2022/01/28 07:31:03;;;;;;;13.27;2.67;;;3.50;99.90;;;;;;5100549;28;20089;-73
2022/01/28 07:33:31;;;;;;;17.33;1.95;;;3.50;99.90;;;;;;5100571;28;20016;-72
2022/01/28 07:35:59;;;;;;;20.35;3.58;;;3.50;99.90;;;;;;5082415;28;20024;-72
2022/01/28 07:38:26;;;;;;;14.02;2.83;;;3.50;99.90;;;;;;5100271;28;20093;-72
2022/01/28 07:40:57;;;;;;;20.70;3.63;;;3.60;99.90;;;;;;5082972;28;20016;-73
2022/01/28 07:43:28;;;;;;;10.43;2.45;;;3.50;99.90;;;;;;5100073;28;20035;-74
2022/01/28 07:45:56;;;;;;;7.60;1.65;;;3.60;99.90;;;;;;5100138;28;20043;-73
2022/01/28 07:48:24;;;;;;;16.88;3.00;;;3.60;99.90;;;;;;5099950;28;20024;-72
2022/01/28 07:50:51;;;;;;;12.48;2.10;;;3.60;99.90;;;;;;5082814;28;20392;-71
2022/01/28 07:53:18;;;;;;;15.57;2.20;;;3.60;99.90;;;;;;5101394;28;20095;-74
2022/01/28 07:55:46;;;;;;;8.60;1.50;;;3.60;99.90;;;;;;5101148;28;20474;-72
2022/01/28 07:58:13;;;;;;;16.30;2.22;;;3.70;99.90;;;;;;5100953;28;20028;-73
2022/01/28 08:00:42;;;;;;;16.20;4.65;;;3.70;99.90;;;;;;5100862;28;20305;-73
2022/01/28 08:03:09;;;;;;;21.10;7.43;;;3.70;99.90;;;;;;5100755;28;20020;-73
2022/01/28 08:05:37;;;;;;;20.98;2.92;;;3.70;99.90;;;;;;5083563;28;20020;-73
2022/01/28 08:08:07;;;;;;;12.00;3.08;;;3.70;99.90;;;;;;5100938;28;20103;-74
2022/01/28 08:10:37;;;;;;;14.07;2.08;;;3.70;99.90;;;;;;5099876;28;20124;-74
2022/01/28 08:13:06;;;;;;;14.00;2.70;;;3.80;99.90;;;;;;5099927;28;20016;-73
2022/01/28 08:15:34;;;;;;;25.35;3.92;;;3.80;99.90;;;;;;5100050;28;20024;-72
2022/01/28 08:18:03;;;;;;;11.13;1.60;;;3.90;99.90;;;;;;5099613;28;20020;-73
2022/01/28 08:20:30;;;;;;;12.93;2.72;;;3.90;99.90;;;;;;5081509;28;20054;-69
2022/01/28 08:22:57;;;;;;;12.18;2.05;;;3.90;99.90;;;;;;5064720;28;20027;-69
2022/01/28 08:25:26;;;;;;;18.05;2.50;;;4.00;99.90;;;;;;5099501;28;20027;-68
2022/01/28 08:27:55;;;;;;;20.33;2.40;;;4.00;99.90;;;;;;5099356;28;20048;-68
2022/01/28 08:30:25;;;;;;;14.27;2.20;;;4.00;99.90;;;;;;5098698;28;20113;-68
2022/01/28 08:32:53;;;;;;;13.20;2.13;;;4.00;99.90;;;;;;5081443;28;20063;-67
2022/01/28 08:35:28;;;;;;;19.77;2.78;;;4.10;99.90;;;;;;5100071;28;20031;-68
2022/01/28 08:37:57;;;;;;;20.50;3.33;;;4.10;99.90;;;;;;5100046;28;20026;-74
2022/01/28 08:40:26;;;;;;;19.80;3.00;;;4.10;99.90;;;;;;5099564;28;20331;-68
2022/01/28 08:42:54;;;;;;;13.68;1.98;;;4.10;99.90;;;;;;5082116;28;20031;-67
2022/01/28 08:45:22;;;;;;;11.88;2.47;;;4.20;99.90;;;;;;5099809;28;20363;-68
2022/01/28 08:47:50;;;;;;;14.07;1.92;;;4.20;99.90;;;;;;5099817;28;20016;-68
2022/01/28 08:50:17;;;;;;;16.33;2.70;;;4.20;99.90;;;;;;5081927;28;20020;-68
2022/01/28 08:52:46;;;;;;;5.53;1.98;;;4.20;99.90;;;;;;5099882;28;20016;-67
2022/01/28 08:55:15;;;;;;;18.48;2.13;;;4.20;99.90;;;;;;5081395;28;20028;-68
2022/01/28 08:57:44;;;;;;;21.70;2.83;;;4.20;99.90;;;;;;5098730;28;20073;-68
2022/01/28 09:00:21;;;;;;;15.90;2.40;;;4.20;99.90;;;;;;5099157;28;20028;-68
2022/01/28 09:02:50;;;;;;;9.80;2.33;;;4.20;99.90;;;;;;5098702;28;20166;-67
2022/01/28 09:05:18;;;;;;;20.75;4.32;;;4.30;99.90;;;;;;5098611;28;20028;-67
2022/01/28 09:07:48;;;;;;;19.35;2.22;;;4.30;99.90;;;;;;5080662;28;20029;-67
2022/01/28 09:10:24;;;;;;;18.17;2.38;;;4.40;99.90;;;;;;5098496;28;20025;-67
2022/01/28 09:13:38;;;;;;;15.68;3.08;;;4.40;99.90;;;;;;5098855;28;20016;-67
2022/01/28 09:15:41;;;;;;;14.98;2.30;;;4.40;99.90;;;;;;5080189;28;20074;-67
2022/01/28 09:18:13;;;;;;;26.50;2.88;;;4.40;99.90;;;;;;5081237;28;20301;-67
2022/01/28 09:20:41;;;;;;;14.05;2.38;;;4.50;99.90;;;;;;5099845;28;20024;-67
2022/01/28 09:23:09;;;;;;;12.23;1.98;;;4.50;99.90;;;;;;5081245;28;20066;-67
2022/01/28 09:25:37;;;;;;;11.57;2.95;;;4.50;99.90;;;;;;5098994;28;20052;-68
2022/01/28 09:28:05;;;;;;;12.77;2.40;;;4.50;99.90;;;;;;5077669;28;20054;-68
2022/01/28 09:30:32;;;;;;;20.10;3.28;;;4.60;99.90;;;;;;5079059;28;20036;-68
2022/01/28 09:33:01;;;;;;;11.55;2.17;;;4.60;99.90;;;;;;5078922;28;20085;-68
2022/01/28 09:35:28;;;;;;;16.02;2.72;;;4.60;99.90;;;;;;5078619;28;20078;-68
2022/01/28 09:37:55;;;;;;;11.75;2.42;;;4.60;99.90;;;;;;5076802;28;20412;-67
2022/01/28 09:40:22;;;;;;;24.02;3.47;;;4.60;99.90;;;;;;5077263;28;20032;-67
2022/01/28 09:42:52;;;;;;;18.70;3.58;;;4.70;99.90;;;;;;5076886;28;20099;-67
2022/01/28 09:45:23;;;;;;;18.30;2.25;;;4.70;99.90;;;;;;5078124;28;20020;-68
2022/01/28 09:47:53;;;;;;;14.52;2.58;;;4.80;99.90;;;;;;5078009;28;20028;-68
2022/01/28 09:50:24;;;;;;;17.48;3.42;;;4.80;99.90;;;;;;5077454;28;20484;-68
2022/01/28 09:52:53;;;;;;;17.40;5.18;;;4.90;99.90;;;;;;5076537;28;20031;-68
2022/01/28 09:55:22;;;;;;;13.07;2.72;;;4.90;99.90;;;;;;5076458;28;20435;-68
2022/01/28 09:57:53;;;;;;;16.92;3.85;;;4.90;99.90;;;;;;5077646;28;20052;-67
2022/01/28 10:00:23;;;;;;;13.25;2.95;;;5.00;99.90;;;;;;5078153;28;20031;-67
2022/01/28 10:03:03;;;;;;;19.63;2.83;;;5.00;99.90;;;;;;5078198;28;20032;-68
2022/01/28 10:05:34;;;;;;;16.02;1.90;;;5.10;99.90;;;;;;5078917;28;20320;-68
2022/01/28 10:08:16;;;;;;;22.50;2.58;;;5.10;99.90;;;;;;5078731;28;20024;-67
2022/01/28 10:11:14;;;;;;;13.55;2.80;;;5.20;99.90;;;;;;5077920;28;20332;-67
2022/01/28 10:13:48;;;;;;;13.15;3.55;;;5.20;99.90;;;;;;5078559;28;20154;-72
2022/01/28 10:16:27;;;;;;;19.13;3.45;;;5.20;99.90;;;;;;5078572;28;20021;-67
2022/01/28 10:19:09;;;;;;;21.25;2.38;;;5.20;99.90;;;;;;5076972;28;20451;-67
2022/01/28 10:21:43;;;;;;;15.35;3.22;;;5.20;99.90;;;;;;5076836;28;20036;-67
2022/01/28 10:24:18;;;;;;;13.75;2.22;;;5.20;99.90;;;;;;5076943;28;20396;-67
2022/01/28 10:27:09;;;;;;;18.27;3.08;;;5.20;99.90;;;;;;5077121;28;20024;-67
2022/01/28 10:29:41;;;;;;;17.05;2.45;;;5.20;99.90;;;;;;5096929;28;20093;-67
2022/01/28 10:32:11;;;;;;;6.60;1.73;;;5.30;99.90;;;;;;5096886;28;20030;-67
2022/01/28 10:34:49;;;;;;;17.77;2.67;;;5.40;99.90;;;;;;5079114;28;20027;-67
2022/01/28 10:37:32;;;;;;;11.82;2.25;;;5.40;99.90;;;;;;5078804;28;20020;-67
2022/01/28 10:40:03;;;;;;;15.02;2.50;;;5.40;99.90;;;;;;5096944;28;20027;-67
2022/01/28 10:42:52;;;;;;;14.88;2.22;;;5.50;99.90;;;;;;5079714;28;20419;-67
2022/01/28 10:45:24;;;;;;;19.98;2.70;;;5.60;99.90;;;;;;5097827;28;20031;-67
2022/01/28 10:47:57;;;;;;;19.27;3.13;;;5.70;99.90;;;;;;5097245;28;20032;-68
2022/01/28 10:50:32;;;;;;;16.45;2.72;;;5.70;99.90;;;;;;5097492;28;20097;-67
2022/01/28 10:53:10;;;;;;;21.50;2.88;;;5.80;99.90;;;;;;5098096;28;20055;-67
2022/01/28 10:55:41;;;;;;;12.70;2.67;;;5.80;99.90;;;;;;5097492;28;20027;-68
2022/01/28 10:58:17;;;;;;;17.23;2.40;;;5.90;99.90;;;;;;5097560;28;20289;-67
2022/01/28 11:00:47;;;;;;;20.42;3.65;;;6.00;99.90;;;;;;5096829;28;20483;-67
2022/01/28 11:03:17;;;;;;;14.70;2.83;;;6.20;99.90;;;;;;5096824;28;20016;-69
2022/01/28 11:05:45;;;;;;;10.45;2.42;;;6.40;99.90;;;;;;5097145;28;20103;-67
2022/01/28 11:08:15;;;;;;;16.92;2.65;;;6.50;99.90;;;;;;5078774;28;20035;-68
2022/01/28 11:10:43;;;;;;;23.40;4.10;;;6.60;99.90;;;;;;5078626;28;20024;-68
2022/01/28 11:13:12;;;;;;;21.17;2.88;;;6.80;99.90;;;;;;5096368;28;20030;-68
2022/01/28 11:15:39;;;;;;;17.27;2.38;;;6.80;99.90;;;;;;5096540;28;20012;-68
2022/01/28 11:18:09;;;;;;;17.73;2.83;;;6.80;99.90;;;;;;5096361;28;20039;-68
2022/01/28 11:21:04;;;;;;;15.30;2.15;;;6.80;99.90;;;;;;5078620;28;20115;-68
2022/01/28 11:24:06;;;;;;;18.08;2.28;;;6.80;99.90;;;;;;5096868;28;20110;-77
2022/01/28 11:27:00;;;;;;;10.32;2.53;;;6.70;99.90;;;;;;5097102;28;20371;-68
2022/01/28 11:29:28;;;;;;;11.07;1.73;;;6.60;99.90;;;;;;5075486;28;20047;-68
2022/01/28 11:31:58;;;;;;;14.05;2.80;;;6.50;99.90;;;;;;5077054;28;20017;-68
2022/01/28 11:34:28;;;;;;;12.27;2.88;;;6.50;99.90;;;;;;5077693;28;20017;-68
2022/01/28 11:36:58;;;;;;;11.25;1.95;;;6.40;99.90;;;;;;5077794;28;20383;-68
2022/01/28 11:39:36;;;;;;;18.35;2.65;;;6.20;99.90;;;;;;5077167;28;20025;-68
2022/01/28 11:42:27;;;;;;;15.50;1.98;;;6.20;99.90;;;;;;5076699;28;20032;-68
2022/01/28 11:44:58;;;;;;;16.30;3.13;;;6.10;99.90;;;;;;5076713;28;20047;-68
2022/01/28 11:47:36;;;;;;;20.00;2.67;;;6.00;99.90;;;;;;5075879;28;20025;-69
2022/01/28 11:50:08;;;;;;;12.77;1.95;;;6.00;99.90;;;;;;5075911;28;20321;-68
2022/01/28 11:52:44;;;;;;;18.52;3.45;;;6.00;99.90;;;;;;5075922;28;20013;-68
2022/01/28 11:55:21;;;;;;;15.55;3.00;;;6.00;99.90;;;;;;5075903;28;20057;-68
2022/01/28 11:57:52;;;;;;;29.08;3.70;;;6.00;99.90;;;;;;5076109;28;20324;-68
2022/01/28 12:00:22;;;;;;;14.57;2.60;;;6.00;99.90;;;;;;5075769;28;20025;-68
2022/01/28 12:02:51;;;;;;;15.38;2.22;;;6.00;99.90;;;;;;5074785;28;20298;-68
2022/01/28 12:05:31;;;;;;;18.77;2.85;;;6.00;99.90;;;;;;5076458;28;20154;-68
2022/01/28 12:08:04;;;;;;;21.17;2.70;;;6.00;99.90;;;;;;5080340;28;20078;-69
2022/01/28 12:10:33;;;;;;;15.68;3.97;;;6.10;99.90;;;;;;5079052;28;20033;-68
2022/01/28 12:13:03;;;;;;;20.00;2.63;;;6.10;99.90;;;;;;5080230;28;20028;-68
2022/01/28 12:15:57;;;;;;;17.10;3.08;;;6.10;99.90;;;;;;5080377;28;20392;-69
2022/01/28 12:18:25;;;;;;;12.93;2.40;;;6.00;99.90;;;;;;5080671;28;20017;-69
2022/01/28 12:20:53;;;;;;;14.77;2.85;;;6.10;99.90;;;;;;5080332;28;20069;-69
2022/01/28 12:23:25;;;;;;;17.83;3.10;;;6.00;99.90;;;;;;5079361;28;20324;-69
2022/01/28 12:25:57;;;;;;;12.30;2.63;;;6.10;99.90;;;;;;5078970;28;20440;-69
2022/01/28 12:28:25;;;;;;;14.68;2.97;;;6.10;99.90;;;;;;5089450;28;20178;-70
2022/01/28 12:31:04;;;;;;;18.45;2.72;;;6.10;99.90;;;;;;5081292;28;20039;-70
2022/01/28 12:33:36;;;;;;;13.25;2.10;;;6.20;99.90;;;;;;5081298;28;20020;-68
2022/01/28 12:36:10;;;;;;;17.52;2.85;;;6.30;99.90;;;;;;5099081;28;20062;-68
2022/01/28 12:38:43;;;;;;;14.10;2.00;;;6.30;99.90;;;;;;5099191;28;20315;-68
2022/01/28 12:41:18;;;;;;;10.68;1.65;;;6.40;99.90;;;;;;5080912;28;20030;-68
2022/01/28 12:43:45;;;;;;;27.42;2.97;;;6.40;99.90;;;;;;5099116;28;20036;-68
2022/01/28 12:46:15;;;;;;;19.48;2.67;;;6.50;99.90;;;;;;5099002;28;20028;-68
2022/01/28 12:48:50;;;;;;;9.95;1.80;;;6.50;99.90;;;;;;5099897;28;20035;-68
2022/01/28 12:51:21;;;;;;;17.75;2.72;;;6.50;99.90;;;;;;5100011;28;20027;-68
2022/01/28 12:53:54;;;;;;;17.02;2.47;;;6.60;99.90;;;;;;5099749;28;20040;-67
2022/01/28 12:56:40;;;;;;;16.30;3.60;;;6.60;99.90;;;;;;5100430;28;20335;-68
2022/01/28 12:59:10;;;;;;;26.63;4.25;;;6.60;99.90;;;;;;5099854;28;20024;-68
2022/01/28 13:01:38;;;;;;;20.75;3.15;;;6.60;99.90;;;;;;5099421;28;20024;-68
2022/01/28 13:04:17;;;;;;;9.80;2.75;;;6.60;99.90;;;;;;5099478;28;20028;-68
2022/01/28 13:09:18;;;;;;;12.95;2.72;;;6.70;99.90;;;;;;5098983;28;20020;-69
2022/01/28 13:11:50;;;;;;;25.52;3.90;;;6.80;99.90;;;;;;5099067;28;20020;-68
2022/01/28 13:14:34;;;;;;;15.30;2.38;;;6.80;99.90;;;;;;5098485;28;20380;-68
2022/01/28 13:17:05;;;;;;;18.65;2.28;;;6.70;99.90;;;;;;5079268;28;20420;-68
2022/01/28 13:19:33;;;;;;;21.20;1.73;;;6.70;99.90;;;;;;5099891;28;20059;-68
2022/01/28 13:22:00;;;;;;;10.35;1.55;;;6.70;99.90;;;;;;5098283;28;20054;-68
2022/01/28 13:24:29;;;;;;;14.68;2.75;;;6.70;99.90;;;;;;5098446;28;20044;-68
2022/01/28 13:27:09;;;;;;;9.90;1.92;;;6.60;99.90;;;;;;5098654;28;20024;-68
2022/01/28 13:29:45;;;;;;;22.05;2.75;;;6.60;99.90;;;;;;5098079;28;20101;-68
2022/01/28 13:32:26;;;;;;;16.27;2.60;;;6.60;99.90;;;;;;5099270;28;20120;-68
2022/01/28 13:34:56;;;;;;;13.57;2.25;;;6.50;99.90;;;;;;5099093;28;20315;-68
2022/01/28 13:37:39;;;;;;;14.20;2.28;;;6.50;99.90;;;;;;5099180;28;20454;-68
2022/01/28 13:40:29;;;;;;;11.93;2.13;;;6.60;99.90;;;;;;5098747;28;20360;-69
2022/01/28 13:43:10;;;;;;;16.05;2.25;;;6.60;99.90;;;;;;5099420;28;20031;-68
2022/01/28 13:45:46;;;;;;;12.98;2.03;;;6.60;99.90;;;;;;5098795;28;20016;-68
2022/01/28 13:48:37;;;;;;;18.48;2.88;;;6.50;99.90;;;;;;5098543;28;20129;-68
2022/01/28 13:51:12;;;;;;;18.70;3.58;;;6.40;99.90;;;;;;5097552;28;20092;-68
2022/01/28 13:56:42;;;;;;;7.45;1.80;;;6.40;99.90;;;;;;5097878;28;20060;-68
2022/01/28 13:59:16;;;;;;;14.13;1.70;;;6.40;99.90;;;;;;5097591;28;20077;-68
2022/01/28 14:01:48;;;;;;;11.07;1.98;;;6.30;99.90;;;;;;5079491;28;20039;-68
2022/01/28 14:04:35;;;;;;;11.63;2.22;;;6.30;99.90;;;;;;5098200;28;20024;-68
2022/01/28 14:07:19;;;;;;;18.55;2.03;;;6.20;99.90;;;;;;5097244;28;20089;-68
2022/01/28 14:09:58;;;;;;;10.68;1.90;;;6.20;99.90;;;;;;5098135;28;20024;-68
2022/01/28 14:12:41;;;;;;;17.40;3.35;;;6.20;99.90;;;;;;5097982;28;20020;-68
2022/01/28 14:16:12;;;;;;;15.27;2.30;;;6.20;99.90;;;;;;5098222;28;20450;-68
2022/01/28 14:18:09;;;;;;;13.55;3.00;;;6.30;99.90;;;;;;5083774;28;20040;-68
2022/01/28 14:20:36;;;;;;;22.20;3.15;;;6.30;99.90;;;;;;5080207;28;20386;-68
2022/01/28 14:23:04;;;;;;;12.82;2.50;;;6.40;99.90;;;;;;5098782;28;20039;-68
2022/01/28 14:25:31;;;;;;;20.00;3.47;;;6.40;99.90;;;;;;5079976;28;20024;-68
2022/01/28 14:30:41;;;;;;;21.42;3.03;;;6.50;99.90;;;;;;5097097;28;20024;-68